createdAt,value
2022-12-19T00:02:08.200Z,5.68
2022-12-19T00:04:37.095Z,4.28
2022-12-19T00:07:05.830Z,4.25
2022-12-19T00:09:34.825Z,5.60
2022-12-19T00:12:04.946Z,4.32
2022-12-19T00:14:35.236Z,4.50
2022-12-19T00:17:04.062Z,6.03
2022-12-19T00:19:32.856Z,4.70
2022-12-19T00:22:01.535Z,6.18
2022-12-19T00:24:30.650Z,5.63
2022-12-19T00:26:59.655Z,4.53
2022-12-19T00:29:32.704Z,5.45
2022-12-19T00:32:04.407Z,4.50
2022-12-19T00:34:33.299Z,3.78
2022-12-19T00:37:04.009Z,5.40
2022-12-19T00:39:32.920Z,5.45
2022-12-19T00:42:01.642Z,4.93
2022-12-19T00:44:30.367Z,6.57
2022-12-19T00:47:00.517Z,3.10
2022-12-19T00:49:30.644Z,3.58
2022-12-19T00:52:00.596Z,4.35
2022-12-19T00:54:29.367Z,3.70
2022-12-19T00:57:01.637Z,5.47
2022-12-19T00:59:30.472Z,3.65
2022-12-19T01:01:59.678Z,4.47
2022-12-19T01:04:29.809Z,3.88
2022-12-19T01:07:02.399Z,4.25
2022-12-19T01:09:37.270Z,3.45
2022-12-19T01:12:25.147Z,4.00
2022-12-19T01:15:04.215Z,3.88
2022-12-19T01:17:44.363Z,4.35
2022-12-19T01:20:16.593Z,3.95
2022-12-19T01:22:48.417Z,3.78
2022-12-19T01:25:17.272Z,3.20
2022-12-19T01:27:46.108Z,3.88
2022-12-19T01:30:15.528Z,4.35
2022-12-19T01:32:45.743Z,7.38
2022-12-19T01:35:18.860Z,6.95
2022-12-19T01:37:52.250Z,7.35
2022-12-19T01:40:31.672Z,6.10
2022-12-19T01:43:00.575Z,6.70
2022-12-19T01:45:34.682Z,6.93
2022-12-19T01:48:21.800Z,5.30
2022-12-19T01:51:01.827Z,3.70
2022-12-19T01:53:49.029Z,4.30
2022-12-19T01:56:21.066Z,4.07
2022-12-19T01:58:56.091Z,4.03
2022-12-19T02:01:49.545Z,4.22
2022-12-19T02:04:25.685Z,4.70
2022-12-19T02:06:59.166Z,3.80
2022-12-19T02:09:35.457Z,4.65
2022-12-19T02:12:05.127Z,3.50
2022-12-19T02:14:38.665Z,4.80
2022-12-19T02:17:17.972Z,3.95
2022-12-19T02:20:16.604Z,4.32
2022-12-19T02:23:00.096Z,4.93
2022-12-19T02:25:50.207Z,4.18
2022-12-19T02:28:36.460Z,4.72
2022-12-19T02:31:16.782Z,5.55
2022-12-19T02:33:56.960Z,5.75
2022-12-19T02:36:38.931Z,5.10
2022-12-19T02:39:13.231Z,4.25
2022-12-19T02:41:49.421Z,4.72
2022-12-19T02:44:26.828Z,4.50
2022-12-19T02:46:59.879Z,4.43
2022-12-19T02:49:31.355Z,4.88
2022-12-19T02:52:10.943Z,4.82
2022-12-19T02:54:42.347Z,4.75
2022-12-19T02:57:21.471Z,4.78
2022-12-19T03:00:05.137Z,4.72
2022-12-19T03:02:53.836Z,4.50
2022-12-19T03:05:41.485Z,4.93
2022-12-19T03:08:21.660Z,4.38
2022-12-19T03:10:57.792Z,4.85
2022-12-19T03:13:31.633Z,4.72
2022-12-19T03:16:03.206Z,4.38
2022-12-19T03:18:35.772Z,4.28
2022-12-19T03:21:12.941Z,4.32
2022-12-19T03:23:42.594Z,4.47
2022-12-19T03:26:16.906Z,4.95
2022-12-19T03:28:51.997Z,5.15
2022-12-19T03:31:24.396Z,4.03
2022-12-19T03:34:00.121Z,4.50
2022-12-19T03:36:32.727Z,4.32
2022-12-19T03:39:05.878Z,4.78
2022-12-19T03:41:56.981Z,4.65
2022-12-19T03:44:29.910Z,4.80
2022-12-19T03:47:05.929Z,4.65
2022-12-19T03:49:37.595Z,4.72
2022-12-19T03:52:18.313Z,5.15
2022-12-19T03:54:52.303Z,4.82
2022-12-19T03:57:26.468Z,4.65
2022-12-19T04:00:01.909Z,4.97
2022-12-19T04:02:44.907Z,5.10
2022-12-19T04:05:19.288Z,4.22
2022-12-19T04:07:49.622Z,5.45
2022-12-19T04:10:22.406Z,5.93
2022-12-19T04:12:58.607Z,5.15
2022-12-19T04:15:37.397Z,4.80
2022-12-19T04:18:09.059Z,4.63
2022-12-19T04:20:42.604Z,5.18
2022-12-19T04:23:19.115Z,5.90
2022-12-19T04:25:51.791Z,5.05
2022-12-19T04:28:27.143Z,5.78
2022-12-19T04:30:59.937Z,5.38
2022-12-19T04:33:29.184Z,5.32
2022-12-19T04:35:59.750Z,5.85
2022-12-19T04:38:28.840Z,5.32
2022-12-19T04:40:57.811Z,4.97
2022-12-19T04:43:26.805Z,4.82
2022-12-19T04:45:57.379Z,5.22
2022-12-19T04:48:31.589Z,5.80
2022-12-19T04:51:01.987Z,5.20
2022-12-19T04:53:31.106Z,5.35
2022-12-19T04:56:03.354Z,5.20
2022-12-19T04:58:32.475Z,5.85
2022-12-19T05:01:03.348Z,5.28
2022-12-19T05:03:32.962Z,4.47
2022-12-19T05:06:10.817Z,4.80
2022-12-19T05:08:42.674Z,5.55
2022-12-19T05:11:17.483Z,5.05
2022-12-19T05:13:50.211Z,4.95
2022-12-19T05:16:19.715Z,5.75
2022-12-19T05:18:48.889Z,6.35
2022-12-19T05:21:19.091Z,6.20
2022-12-19T05:23:47.766Z,5.65
2022-12-19T05:26:17.534Z,6.15
2022-12-19T05:28:46.313Z,5.90
2022-12-19T05:31:17.805Z,5.53
2022-12-19T05:33:46.908Z,5.95
2022-12-19T05:36:17.593Z,6.35
2022-12-19T05:38:48.518Z,6.60
2022-12-19T05:41:19.176Z,5.10
2022-12-19T05:43:51.459Z,5.78
2022-12-19T05:46:21.057Z,4.75
2022-12-19T05:48:50.685Z,5.13
2022-12-19T05:51:21.107Z,5.70
2022-12-19T05:53:51.879Z,5.50
2022-12-19T05:56:23.247Z,5.53
2022-12-19T05:58:52.392Z,5.40
2022-12-19T06:01:23.718Z,5.57
2022-12-19T06:03:53.134Z,5.72
2022-12-19T06:06:24.048Z,4.68
2022-12-19T06:08:56.835Z,5.57
2022-12-19T06:11:26.303Z,4.70
2022-12-19T06:13:55.514Z,6.03
2022-12-19T06:16:25.007Z,4.65
2022-12-19T06:18:54.062Z,6.03
2022-12-19T06:21:25.343Z,5.95
2022-12-19T06:23:56.077Z,4.72
2022-12-19T06:26:24.788Z,5.05
2022-12-19T06:31:24.681Z,5.78
2022-12-19T06:33:54.580Z,4.70
2022-12-19T06:36:25.522Z,4.78
2022-12-19T06:38:58.056Z,5.45
2022-12-19T06:41:44.932Z,4.32
2022-12-19T06:44:15.866Z,4.85
2022-12-19T06:46:45.010Z,4.90
2022-12-19T06:49:14.033Z,7.03
2022-12-19T06:51:43.399Z,7.00
2022-12-19T06:54:14.130Z,6.35
2022-12-19T06:56:45.024Z,6.10
2022-12-19T06:59:16.959Z,6.40
2022-12-19T07:01:57.165Z,6.50
2022-12-19T07:04:34.979Z,5.93
2022-12-19T07:07:04.229Z,5.93
2022-12-19T07:09:35.315Z,4.75
2022-12-19T07:12:04.517Z,5.63
2022-12-19T07:14:33.939Z,5.03
2022-12-19T07:17:04.531Z,5.15
2022-12-19T07:19:34.378Z,5.57
2022-12-19T07:22:05.226Z,5.72
2022-12-19T07:24:37.504Z,5.72
2022-12-19T07:27:06.548Z,5.05
2022-12-19T07:29:35.001Z,5.28
2022-12-19T07:34:32.539Z,4.88
2022-12-19T07:37:14.196Z,4.38
2022-12-19T07:40:27.817Z,5.65
2022-12-19T07:42:56.467Z,4.93
2022-12-19T07:45:25.063Z,5.75
2022-12-19T07:50:24.592Z,5.70
2022-12-19T07:52:59.073Z,4.95
2022-12-19T07:55:29.695Z,4.63
2022-12-19T07:57:58.256Z,4.85
2022-12-19T08:00:26.870Z,5.90
2022-12-19T08:05:23.594Z,4.35
2022-12-19T08:10:22.727Z,5.35
2022-12-19T08:12:55.180Z,4.80
2022-12-19T08:15:23.804Z,5.32
2022-12-19T08:17:55.568Z,4.85
2022-12-19T08:20:24.377Z,5.55
2022-12-19T08:22:53.175Z,5.50
2022-12-19T08:25:22.022Z,5.72
2022-12-19T08:27:51.050Z,5.10
2022-12-19T08:30:21.577Z,5.20
2022-12-19T08:32:50.850Z,5.75
2022-12-19T08:35:20.002Z,5.40
2022-12-19T08:37:48.981Z,5.43
2022-12-19T08:40:17.747Z,5.07
2022-12-19T08:42:46.453Z,6.22
2022-12-19T08:45:15.255Z,5.97
2022-12-19T08:47:46.255Z,5.70
2022-12-19T08:50:15.345Z,5.32
2022-12-19T08:52:44.379Z,5.72
2022-12-19T08:55:13.320Z,6.03
2022-12-19T08:57:41.895Z,5.57
2022-12-19T09:00:12.251Z,5.75
2022-12-19T09:02:41.883Z,5.60
2022-12-19T09:06:00.740Z,5.88
2022-12-19T09:08:04.638Z,5.72
2022-12-19T09:10:33.488Z,5.50
2022-12-19T09:13:02.467Z,5.60
2022-12-19T09:15:31.698Z,5.45
2022-12-19T09:18:00.489Z,5.93
2022-12-19T09:20:31.344Z,6.03
2022-12-19T09:23:00.555Z,5.82
2022-12-19T09:25:29.128Z,4.90
2022-12-19T09:30:46.822Z,5.32
2022-12-19T09:33:16.209Z,5.60
2022-12-19T09:35:53.042Z,5.25
2022-12-19T09:38:25.757Z,5.93
2022-12-19T09:41:06.379Z,5.78
2022-12-19T09:43:56.220Z,5.75
2022-12-19T09:46:36.493Z,5.57
2022-12-19T09:49:17.215Z,5.95
2022-12-19T09:51:54.436Z,5.35
2022-12-19T09:54:29.164Z,6.65
2022-12-19T09:57:02.905Z,5.32
2022-12-19T09:59:41.495Z,6.13
2022-12-19T10:02:26.968Z,5.97
2022-12-19T10:05:16.825Z,7.05
2022-12-19T10:08:08.425Z,6.72
2022-12-19T10:12:45.730Z,6.40
2022-12-19T10:13:56.314Z,6.60
2022-12-19T10:16:37.139Z,7.22
2022-12-19T10:19:08.551Z,6.82
2022-12-19T10:25:09.262Z,6.07
2022-12-19T10:27:59.486Z,6.35
2022-12-19T10:30:32.216Z,6.38
2022-12-19T10:33:20.151Z,5.97
2022-12-19T10:38:28.619Z,6.22
2022-12-19T10:41:16.479Z,6.43
2022-12-19T10:43:55.762Z,8.30
2022-12-19T10:46:37.458Z,6.20
2022-12-19T10:49:14.777Z,6.10
2022-12-19T10:51:44.183Z,6.80
2022-12-19T10:54:13.278Z,6.15
2022-12-19T10:56:44.002Z,8.18
2022-12-19T10:59:18.437Z,4.68
2022-12-19T11:02:00.490Z,6.13
2022-12-19T11:04:34.674Z,6.22
2022-12-19T11:07:24.687Z,6.13
2022-12-19T11:09:58.161Z,5.68
2022-12-19T11:16:43.873Z,6.45
2022-12-19T11:19:40.751Z,6.75
2022-12-19T11:27:48.711Z,6.82
2022-12-19T11:29:37.686Z,6.47
2022-12-19T11:29:40.576Z,6.50
2022-12-19T11:30:25.641Z,5.95
2022-12-19T11:33:20.426Z,7.45
2022-12-19T11:35:51.037Z,6.47
2022-12-19T11:38:28.131Z,6.13
2022-12-19T11:40:59.807Z,5.40
2022-12-19T11:43:46.171Z,6.60
2022-12-19T11:46:26.734Z,6.40
2022-12-19T11:49:01.059Z,5.55
2022-12-19T11:51:36.107Z,6.00
2022-12-19T11:54:13.915Z,6.72
2022-12-19T11:56:42.539Z,5.43
2022-12-19T12:02:30.371Z,7.22
2022-12-19T12:05:26.788Z,6.70
2022-12-19T12:09:30.369Z,6.68
2022-12-19T12:15:49.723Z,6.85
2022-12-19T12:21:01.027Z,7.32
2022-12-19T12:29:27.608Z,7.32
2022-12-19T12:31:10.130Z,5.60
2022-12-19T12:31:40.357Z,6.90
2022-12-19T12:31:58.648Z,7.00
2022-12-19T12:32:00.728Z,5.90
2022-12-19T12:35:46.912Z,6.80
2022-12-19T12:38:39.259Z,8.23
2022-12-19T12:41:50.966Z,5.82
2022-12-19T12:44:33.114Z,5.32
2022-12-19T12:47:08.316Z,9.35
2022-12-19T12:49:41.501Z,5.57
2022-12-19T12:52:18.577Z,8.15
2022-12-19T12:54:50.040Z,7.00
2022-12-19T12:57:36.412Z,6.80
2022-12-19T13:00:25.030Z,7.97
2022-12-19T13:02:58.363Z,8.05
2022-12-19T13:05:56.153Z,5.80
2022-12-19T13:08:36.048Z,6.00
2022-12-19T13:11:07.732Z,7.15
2022-12-19T13:13:58.267Z,7.15
2022-12-19T13:16:53.230Z,7.82
2022-12-19T13:19:28.738Z,5.68
2022-12-19T13:22:34.011Z,6.68
2022-12-19T13:25:04.000Z,6.68
2022-12-19T13:27:39.857Z,7.57
2022-12-19T13:30:20.220Z,6.95
2022-12-19T13:33:09.562Z,6.82
2022-12-19T13:37:10.209Z,6.38
2022-12-19T13:39:50.024Z,5.75
2022-12-19T13:41:58.366Z,7.95
2022-12-19T13:44:27.894Z,6.03
2022-12-19T13:46:57.443Z,7.28
2022-12-19T13:49:33.244Z,7.15
2022-12-19T13:52:04.518Z,7.82
2022-12-19T13:54:38.919Z,8.02
2022-12-19T13:57:23.554Z,7.57
2022-12-19T14:00:00.165Z,7.45
2022-12-19T14:02:44.080Z,9.60
2022-12-19T14:05:44.482Z,7.63
2022-12-19T14:08:21.825Z,8.77
2022-12-19T14:11:33.485Z,7.90
2022-12-19T14:14:18.954Z,6.82
2022-12-19T14:16:50.709Z,8.77
2022-12-19T14:22:04.875Z,7.68
2022-12-19T14:24:40.967Z,6.95
2022-12-19T14:28:24.712Z,6.55
2022-12-19T14:30:29.164Z,7.28
2022-12-19T14:33:40.605Z,7.35
2022-12-19T14:36:07.956Z,6.30
2022-12-19T14:39:23.220Z,7.85
2022-12-19T14:42:02.317Z,5.68
2022-12-19T14:53:17.581Z,8.10
2022-12-19T14:54:00.766Z,7.10
2022-12-19T14:54:15.828Z,7.45
2022-12-19T14:54:29.543Z,7.45
2022-12-19T14:56:53.846Z,6.78
2022-12-19T14:59:03.886Z,6.90
2022-12-19T15:01:36.565Z,6.43
2022-12-19T15:04:51.682Z,7.63
2022-12-19T15:07:07.384Z,7.13
2022-12-19T15:11:03.268Z,6.97
2022-12-19T15:14:47.504Z,7.00
2022-12-19T15:16:00.651Z,6.75
2022-12-19T15:18:40.387Z,6.88
2022-12-19T15:21:12.905Z,7.38
2022-12-19T15:23:45.184Z,7.18
2022-12-19T15:26:15.697Z,7.68
2022-12-19T15:28:47.832Z,8.43
2022-12-19T15:31:27.178Z,7.97
2022-12-19T15:36:46.260Z,7.22
2022-12-19T15:39:15.840Z,7.93
2022-12-19T15:41:46.093Z,8.13
2022-12-19T15:44:18.981Z,7.47
2022-12-19T15:46:50.972Z,8.55
2022-12-19T15:49:21.369Z,8.55
2022-12-19T15:51:51.655Z,8.30
2022-12-19T15:57:23.861Z,7.30
2022-12-19T15:59:53.147Z,8.95
2022-12-19T16:02:24.560Z,8.02
2022-12-19T16:05:01.561Z,7.97
2022-12-19T16:07:34.332Z,8.40
2022-12-19T16:10:03.353Z,8.60
2022-12-19T16:12:36.982Z,8.57
2022-12-19T16:15:08.772Z,7.75
2022-12-19T16:17:38.549Z,7.53
2022-12-19T16:20:17.015Z,7.72
2022-12-19T16:22:49.808Z,8.07
2022-12-19T16:25:23.748Z,7.78
2022-12-19T16:27:57.638Z,8.13
2022-12-19T16:30:29.248Z,8.13
2022-12-19T16:32:58.657Z,7.95
2022-12-19T16:38:21.454Z,7.75
2022-12-19T16:40:51.609Z,7.80
2022-12-19T16:43:27.626Z,8.57
2022-12-19T16:46:00.806Z,8.80
2022-12-19T16:48:31.528Z,8.13
2022-12-19T16:51:03.159Z,7.80
2022-12-19T16:53:33.144Z,8.25
2022-12-19T16:56:02.343Z,10.75
2022-12-19T16:58:31.167Z,8.63
2022-12-19T17:00:59.646Z,8.02
2022-12-19T17:03:33.749Z,7.85
2022-12-19T17:06:02.888Z,7.00
2022-12-19T17:08:32.966Z,7.80
2022-12-19T17:11:01.510Z,7.90
2022-12-19T17:13:30.523Z,6.45
2022-12-19T17:16:00.155Z,7.03
2022-12-19T17:18:32.103Z,7.80
2022-12-19T17:21:00.723Z,6.47
2022-12-19T17:26:01.196Z,5.10
2022-12-19T17:28:30.732Z,7.70
2022-12-19T17:31:08.004Z,5.70
2022-12-19T17:33:42.176Z,5.72
2022-12-19T17:36:18.298Z,7.70
2022-12-19T17:38:49.820Z,6.10
2022-12-19T17:41:19.874Z,7.43
2022-12-19T17:43:48.644Z,6.93
2022-12-19T17:48:51.390Z,6.63
2022-12-19T17:51:22.073Z,6.82
2022-12-19T17:53:51.361Z,7.22
2022-12-19T17:56:22.310Z,6.30
2022-12-19T17:58:51.095Z,5.93
2022-12-19T18:01:24.449Z,7.00
2022-12-19T18:04:23.767Z,6.68
2022-12-19T18:06:54.395Z,6.20
2022-12-19T18:09:24.726Z,5.95
2022-12-19T18:11:54.962Z,6.07
2022-12-19T18:14:25.055Z,5.88
2022-12-19T18:16:53.978Z,6.03
2022-12-19T18:19:30.110Z,6.50
2022-12-19T18:21:59.198Z,6.95
2022-12-19T18:24:28.151Z,6.47
2022-12-19T18:26:58.319Z,6.30
2022-12-19T18:29:27.197Z,7.63
2022-12-19T18:31:59.522Z,6.40
2022-12-19T18:34:31.855Z,6.97
2022-12-19T18:37:00.670Z,7.95
2022-12-19T18:39:32.193Z,7.43
2022-12-19T18:42:03.298Z,7.93
2022-12-19T18:44:32.233Z,7.47
2022-12-19T18:47:01.356Z,7.72
2022-12-19T18:49:29.896Z,6.75
2022-12-19T18:54:32.751Z,6.28
2022-12-19T18:57:03.042Z,6.90
2022-12-19T18:59:32.378Z,6.40
2022-12-19T19:04:29.654Z,6.68
2022-12-19T19:09:26.594Z,6.47
2022-12-19T19:12:06.864Z,6.82
2022-12-19T19:14:35.421Z,6.32
2022-12-19T19:17:05.755Z,6.63
2022-12-19T19:19:34.409Z,6.38
2022-12-19T19:22:03.015Z,7.13
2022-12-19T19:24:31.677Z,6.43
2022-12-19T19:29:30.195Z,6.20
2022-12-19T19:31:59.183Z,6.90
2022-12-19T19:34:31.206Z,6.93
2022-12-19T19:37:03.816Z,7.20
2022-12-19T19:39:42.286Z,6.90
2022-12-19T19:42:11.384Z,6.60
2022-12-19T19:47:09.489Z,6.78
2022-12-19T19:49:38.117Z,7.28
2022-12-19T19:54:36.451Z,7.22
2022-12-19T19:57:05.113Z,6.63
2022-12-19T20:02:03.241Z,7.07
2022-12-19T20:04:32.017Z,6.60
2022-12-19T20:09:28.853Z,6.07
2022-12-19T20:14:26.694Z,7.43
2022-12-19T20:16:55.668Z,7.22
2022-12-19T20:19:25.629Z,7.20
2022-12-19T20:21:54.271Z,8.68
2022-12-19T20:24:22.756Z,6.95
2022-12-19T20:26:51.200Z,7.40
2022-12-19T20:29:19.733Z,8.18
2022-12-19T20:31:48.325Z,7.20
2022-12-19T20:39:15.226Z,6.65
2022-12-19T20:41:43.752Z,6.63
2022-12-19T20:46:40.585Z,6.13
2022-12-19T20:51:37.994Z,6.38
2022-12-19T20:54:08.882Z,6.88
2022-12-19T20:56:37.403Z,7.00
2022-12-19T20:59:06.146Z,6.55
2022-12-19T21:01:34.893Z,6.47
2022-12-19T21:04:05.738Z,6.65
2022-12-19T21:06:34.797Z,6.43
2022-12-19T21:09:03.387Z,5.43
2022-12-19T21:11:33.504Z,6.95
2022-12-19T21:14:02.073Z,5.32
2022-12-19T21:16:31.171Z,6.63
2022-12-19T21:19:02.445Z,5.57
2022-12-19T21:21:31.441Z,6.30
2022-12-19T21:24:02.406Z,6.57
2022-12-19T21:26:32.533Z,6.63
2022-12-19T21:29:02.425Z,5.95
2022-12-19T21:31:31.947Z,6.93
2022-12-19T21:34:03.223Z,6.13
2022-12-19T21:36:32.388Z,6.38
2022-12-19T21:39:03.260Z,5.82
2022-12-19T21:41:34.171Z,6.30
2022-12-19T21:44:05.339Z,5.63
2022-12-19T21:46:34.796Z,5.00
2022-12-19T21:49:08.546Z,6.15
2022-12-19T21:51:37.319Z,6.38
2022-12-19T21:54:07.215Z,6.93
2022-12-19T21:56:41.523Z,7.30
2022-12-19T21:59:14.260Z,7.30
2022-12-19T22:01:43.949Z,7.88
2022-12-19T22:04:14.931Z,7.75
2022-12-19T22:06:43.397Z,7.00
2022-12-19T22:09:14.891Z,6.68
2022-12-19T22:11:45.512Z,6.95
2022-12-19T22:14:15.715Z,7.63
2022-12-19T22:16:44.692Z,7.80
2022-12-19T22:19:15.629Z,6.60
2022-12-19T22:21:44.807Z,6.30
2022-12-19T22:24:16.509Z,6.25
2022-12-19T22:26:46.569Z,6.22
2022-12-19T22:29:17.838Z,5.63
2022-12-19T22:31:49.679Z,5.30
2022-12-19T22:34:20.319Z,5.85
2022-12-19T22:36:50.035Z,5.60
2022-12-19T22:39:20.893Z,5.88
2022-12-19T22:41:51.328Z,5.32
2022-12-19T22:44:21.895Z,5.68
2022-12-19T22:46:51.299Z,5.40
2022-12-19T22:49:20.971Z,5.57
2022-12-19T22:51:50.096Z,5.07
2022-12-19T22:54:19.124Z,6.32
2022-12-19T22:56:50.637Z,5.35
2022-12-19T22:59:20.743Z,5.68
2022-12-19T23:01:49.597Z,5.15
2022-12-19T23:04:18.621Z,5.78
2022-12-19T23:06:47.309Z,6.10
2022-12-19T23:09:18.716Z,5.20
2022-12-19T23:11:49.506Z,6.28
2022-12-19T23:14:21.155Z,5.47
2022-12-19T23:16:50.220Z,5.82
2022-12-19T23:19:19.047Z,6.28
2022-12-19T23:21:48.328Z,6.00
2022-12-19T23:24:16.883Z,6.00
2022-12-19T23:26:45.664Z,5.45
2022-12-19T23:29:16.306Z,6.20
2022-12-19T23:31:48.047Z,5.55
2022-12-19T23:34:17.298Z,5.32
2022-12-19T23:37:10.669Z,6.13
2022-12-19T23:39:35.214Z,5.90
2022-12-19T23:44:31.997Z,5.80
2022-12-19T23:47:03.900Z,5.45
2022-12-19T23:49:33.848Z,5.30
2022-12-19T23:52:02.492Z,5.65
2022-12-19T23:56:59.283Z,5.03
